sensor_id;sensor_type;location;lat;lon;timestamp;P1;durP1;ratioP1;P2;durP2;ratioP2
46731;SDS011;32477;51.474;5.696;2023-05-07T00:02:10;23.67;;;12.95;;
46731;SDS011;32477;51.474;5.696;2023-05-07T00:04:36;22.17;;;13.00;;
46731;SDS011;32477;51.474;5.696;2023-05-07T00:07:04;22.73;;;13.52;;
46731;SDS011;32477;51.474;5.696;2023-05-07T00:09:30;24.40;;;14.35;;
46731;SDS011;32477;51.474;5.696;2023-05-07T00:11:56;22.85;;;13.48;;
46731;SDS011;32477;51.474;5.696;2023-05-07T00:14:21;24.10;;;14.50;;
46731;SDS011;32477;51.474;5.696;2023-05-07T00:16:47;21.15;;;14.48;;
46731;SDS011;32477;51.474;5.696;2023-05-07T00:19:13;22.25;;;13.73;;
46731;SDS011;32477;51.474;5.696;2023-05-07T00:21:38;22.27;;;13.05;;
46731;SDS011;32477;51.474;5.696;2023-05-07T00:24:04;21.83;;;13.85;;
46731;SDS011;32477;51.474;5.696;2023-05-07T00:26:30;22.00;;;14.82;;
46731;SDS011;32477;51.474;5.696;2023-05-07T00:28:55;22.25;;;14.07;;
46731;SDS011;32477;51.474;5.696;2023-05-07T00:31:21;21.70;;;15.27;;
46731;SDS011;32477;51.474;5.696;2023-05-07T00:33:47;28.38;;;15.63;;
46731;SDS011;32477;51.474;5.696;2023-05-07T00:36:12;30.27;;;17.90;;
46731;SDS011;32477;51.474;5.696;2023-05-07T00:38:38;30.13;;;17.23;;
46731;SDS011;32477;51.474;5.696;2023-05-07T00:41:04;27.70;;;18.48;;
46731;SDS011;32477;51.474;5.696;2023-05-07T00:43:30;26.38;;;17.98;;
46731;SDS011;32477;51.474;5.696;2023-05-07T00:45:56;30.58;;;18.98;;
46731;SDS011;32477;51.474;5.696;2023-05-07T00:48:22;29.67;;;18.33;;
46731;SDS011;32477;51.474;5.696;2023-05-07T00:50:49;33.78;;;19.35;;
46731;SDS011;32477;51.474;5.696;2023-05-07T00:53:15;30.10;;;16.95;;
46731;SDS011;32477;51.474;5.696;2023-05-07T00:55:41;30.02;;;19.08;;
46731;SDS011;32477;51.474;5.696;2023-05-07T00:58:07;30.60;;;18.45;;
46731;SDS011;32477;51.474;5.696;2023-05-07T01:00:33;30.27;;;18.33;;
46731;SDS011;32477;51.474;5.696;2023-05-07T01:02:59;28.15;;;19.10;;
46731;SDS011;32477;51.474;5.696;2023-05-07T01:05:25;32.03;;;20.00;;
46731;SDS011;32477;51.474;5.696;2023-05-07T01:07:53;31.88;;;20.58;;
46731;SDS011;32477;51.474;5.696;2023-05-07T01:10:20;32.55;;;19.30;;
46731;SDS011;32477;51.474;5.696;2023-05-07T01:12:47;33.53;;;21.60;;
46731;SDS011;32477;51.474;5.696;2023-05-07T01:15:16;36.47;;;21.55;;
46731;SDS011;32477;51.474;5.696;2023-05-07T01:17:43;43.10;;;24.92;;
46731;SDS011;32477;51.474;5.696;2023-05-07T01:20:09;37.53;;;22.30;;
46731;SDS011;32477;51.474;5.696;2023-05-07T01:22:39;35.53;;;20.92;;
46731;SDS011;32477;51.474;5.696;2023-05-07T01:25:05;33.42;;;20.65;;
46731;SDS011;32477;51.474;5.696;2023-05-07T01:27:32;34.47;;;22.25;;
46731;SDS011;32477;51.474;5.696;2023-05-07T01:30:02;37.55;;;23.38;;
46731;SDS011;32477;51.474;5.696;2023-05-07T01:35:14;38.65;;;22.95;;
46731;SDS011;32477;51.474;5.696;2023-05-07T01:37:47;39.88;;;23.48;;
46731;SDS011;32477;51.474;5.696;2023-05-07T01:40:14;34.35;;;21.98;;
46731;SDS011;32477;51.474;5.696;2023-05-07T01:42:41;39.00;;;23.13;;
46731;SDS011;32477;51.474;5.696;2023-05-07T01:45:08;40.58;;;22.77;;
46731;SDS011;32477;51.474;5.696;2023-05-07T01:47:35;39.30;;;23.13;;
46731;SDS011;32477;51.474;5.696;2023-05-07T01:50:02;35.08;;;23.13;;
46731;SDS011;32477;51.474;5.696;2023-05-07T01:52:30;38.30;;;23.40;;
46731;SDS011;32477;51.474;5.696;2023-05-07T01:54:56;39.28;;;23.80;;
46731;SDS011;32477;51.474;5.696;2023-05-07T01:57:22;38.40;;;23.52;;
46731;SDS011;32477;51.474;5.696;2023-05-07T01:59:48;42.38;;;26.02;;
46731;SDS011;32477;51.474;5.696;2023-05-07T02:02:13;49.15;;;25.98;;
46731;SDS011;32477;51.474;5.696;2023-05-07T02:04:39;43.20;;;27.13;;
46731;SDS011;32477;51.474;5.696;2023-05-07T02:07:05;43.40;;;26.67;;
46731;SDS011;32477;51.474;5.696;2023-05-07T02:09:30;37.28;;;23.98;;
46731;SDS011;32477;51.474;5.696;2023-05-07T02:11:56;40.25;;;26.00;;
46731;SDS011;32477;51.474;5.696;2023-05-07T02:14:22;44.10;;;27.63;;
46731;SDS011;32477;51.474;5.696;2023-05-07T02:16:47;52.90;;;29.20;;
46731;SDS011;32477;51.474;5.696;2023-05-07T02:19:13;48.42;;;27.80;;
46731;SDS011;32477;51.474;5.696;2023-05-07T02:21:39;44.83;;;27.55;;
46731;SDS011;32477;51.474;5.696;2023-05-07T02:24:04;56.65;;;29.92;;
46731;SDS011;32477;51.474;5.696;2023-05-07T02:26:30;56.05;;;28.75;;
46731;SDS011;32477;51.474;5.696;2023-05-07T02:28:56;48.13;;;28.73;;
46731;SDS011;32477;51.474;5.696;2023-05-07T02:31:21;48.00;;;28.85;;
46731;SDS011;32477;51.474;5.696;2023-05-07T02:33:47;45.95;;;29.52;;
46731;SDS011;32477;51.474;5.696;2023-05-07T02:36:13;43.38;;;27.95;;
46731;SDS011;32477;51.474;5.696;2023-05-07T02:38:38;53.88;;;30.63;;
46731;SDS011;32477;51.474;5.696;2023-05-07T02:41:04;54.85;;;31.23;;
46731;SDS011;32477;51.474;5.696;2023-05-07T02:43:30;48.88;;;30.45;;
46731;SDS011;32477;51.474;5.696;2023-05-07T02:46:05;50.33;;;30.65;;
46731;SDS011;32477;51.474;5.696;2023-05-07T02:48:33;51.40;;;30.73;;
46731;SDS011;32477;51.474;5.696;2023-05-07T02:50:59;55.85;;;30.42;;
46731;SDS011;32477;51.474;5.696;2023-05-07T02:53:25;50.00;;;31.27;;
46731;SDS011;32477;51.474;5.696;2023-05-07T02:55:52;63.17;;;33.33;;
46731;SDS011;32477;51.474;5.696;2023-05-07T02:58:18;51.42;;;30.77;;
46731;SDS011;32477;51.474;5.696;2023-05-07T03:00:44;54.88;;;31.02;;
46731;SDS011;32477;51.474;5.696;2023-05-07T03:03:10;57.17;;;32.78;;
46731;SDS011;32477;51.474;5.696;2023-05-07T03:05:36;54.40;;;31.20;;
46731;SDS011;32477;51.474;5.696;2023-05-07T03:08:01;55.75;;;31.23;;
46731;SDS011;32477;51.474;5.696;2023-05-07T03:10:28;59.17;;;32.13;;
46731;SDS011;32477;51.474;5.696;2023-05-07T03:12:54;52.10;;;31.17;;
46731;SDS011;32477;51.474;5.696;2023-05-07T03:15:20;60.17;;;30.92;;
46731;SDS011;32477;51.474;5.696;2023-05-07T03:17:46;57.65;;;32.53;;
46731;SDS011;32477;51.474;5.696;2023-05-07T03:20:15;60.90;;;33.15;;
46731;SDS011;32477;51.474;5.696;2023-05-07T03:22:41;53.15;;;32.42;;
46731;SDS011;32477;51.474;5.696;2023-05-07T03:25:07;62.63;;;33.70;;
46731;SDS011;32477;51.474;5.696;2023-05-07T03:27:33;59.35;;;33.00;;
46731;SDS011;32477;51.474;5.696;2023-05-07T03:29:59;58.20;;;32.30;;
46731;SDS011;32477;51.474;5.696;2023-05-07T03:32:25;57.22;;;33.55;;
46731;SDS011;32477;51.474;5.696;2023-05-07T03:34:50;53.80;;;33.70;;
46731;SDS011;32477;51.474;5.696;2023-05-07T03:37:16;53.92;;;32.90;;
46731;SDS011;32477;51.474;5.696;2023-05-07T03:39:42;60.17;;;33.22;;
46731;SDS011;32477;51.474;5.696;2023-05-07T03:42:08;56.30;;;34.03;;
46731;SDS011;32477;51.474;5.696;2023-05-07T03:44:33;56.35;;;33.78;;
46731;SDS011;32477;51.474;5.696;2023-05-07T03:47:01;57.83;;;34.15;;
46731;SDS011;32477;51.474;5.696;2023-05-07T03:49:27;57.75;;;35.90;;
46731;SDS011;32477;51.474;5.696;2023-05-07T03:51:53;66.28;;;36.13;;
46731;SDS011;32477;51.474;5.696;2023-05-07T03:54:18;60.92;;;35.38;;
46731;SDS011;32477;51.474;5.696;2023-05-07T03:56:44;63.97;;;33.97;;
46731;SDS011;32477;51.474;5.696;2023-05-07T03:59:10;61.17;;;34.20;;
46731;SDS011;32477;51.474;5.696;2023-05-07T04:01:36;56.15;;;32.90;;
46731;SDS011;32477;51.474;5.696;2023-05-07T04:04:02;57.15;;;34.42;;
46731;SDS011;32477;51.474;5.696;2023-05-07T04:06:28;55.65;;;33.90;;
46731;SDS011;32477;51.474;5.696;2023-05-07T04:08:53;56.30;;;35.03;;
46731;SDS011;32477;51.474;5.696;2023-05-07T04:11:19;62.13;;;34.92;;
46731;SDS011;32477;51.474;5.696;2023-05-07T04:13:45;60.63;;;35.05;;
46731;SDS011;32477;51.474;5.696;2023-05-07T04:16:11;55.95;;;35.30;;
46731;SDS011;32477;51.474;5.696;2023-05-07T04:18:36;62.03;;;35.88;;
46731;SDS011;32477;51.474;5.696;2023-05-07T04:21:02;67.30;;;34.58;;
46731;SDS011;32477;51.474;5.696;2023-05-07T04:23:28;61.97;;;36.47;;
46731;SDS011;32477;51.474;5.696;2023-05-07T04:25:53;62.33;;;35.03;;
46731;SDS011;32477;51.474;5.696;2023-05-07T04:28:19;58.65;;;35.47;;
46731;SDS011;32477;51.474;5.696;2023-05-07T04:30:45;59.42;;;34.40;;
46731;SDS011;32477;51.474;5.696;2023-05-07T04:33:11;62.13;;;35.33;;
46731;SDS011;32477;51.474;5.696;2023-05-07T04:35:37;59.10;;;33.05;;
46731;SDS011;32477;51.474;5.696;2023-05-07T04:38:02;56.38;;;33.15;;
46731;SDS011;32477;51.474;5.696;2023-05-07T04:40:28;59.15;;;34.45;;
46731;SDS011;32477;51.474;5.696;2023-05-07T04:42:54;54.42;;;32.25;;
46731;SDS011;32477;51.474;5.696;2023-05-07T04:45:20;55.60;;;33.72;;
46731;SDS011;32477;51.474;5.696;2023-05-07T04:47:45;51.60;;;32.05;;
46731;SDS011;32477;51.474;5.696;2023-05-07T04:50:11;46.63;;;30.65;;
46731;SDS011;32477;51.474;5.696;2023-05-07T04:52:37;43.50;;;30.23;;
46731;SDS011;32477;51.474;5.696;2023-05-07T04:55:02;49.72;;;31.13;;
46731;SDS011;32477;51.474;5.696;2023-05-07T04:57:28;47.75;;;28.25;;
46731;SDS011;32477;51.474;5.696;2023-05-07T04:59:54;46.97;;;30.35;;
46731;SDS011;32477;51.474;5.696;2023-05-07T05:02:19;48.97;;;28.83;;
46731;SDS011;32477;51.474;5.696;2023-05-07T05:04:45;45.75;;;27.80;;
46731;SDS011;32477;51.474;5.696;2023-05-07T05:07:11;43.45;;;26.15;;
46731;SDS011;32477;51.474;5.696;2023-05-07T05:09:37;41.70;;;25.52;;
46731;SDS011;32477;51.474;5.696;2023-05-07T05:12:02;44.72;;;25.27;;
46731;SDS011;32477;51.474;5.696;2023-05-07T05:14:28;36.85;;;23.70;;
46731;SDS011;32477;51.474;5.696;2023-05-07T05:16:54;33.05;;;22.48;;
46731;SDS011;32477;51.474;5.696;2023-05-07T05:19:20;37.90;;;23.33;;
46731;SDS011;32477;51.474;5.696;2023-05-07T05:21:46;33.13;;;22.10;;
46731;SDS011;32477;51.474;5.696;2023-05-07T05:24:11;37.53;;;22.98;;
46731;SDS011;32477;51.474;5.696;2023-05-07T05:26:37;36.47;;;21.98;;
46731;SDS011;32477;51.474;5.696;2023-05-07T05:29:03;29.10;;;20.30;;
46731;SDS011;32477;51.474;5.696;2023-05-07T05:31:28;28.55;;;20.83;;
46731;SDS011;32477;51.474;5.696;2023-05-07T05:33:54;37.65;;;22.27;;
46731;SDS011;32477;51.474;5.696;2023-05-07T05:36:20;29.98;;;20.27;;
46731;SDS011;32477;51.474;5.696;2023-05-07T05:38:46;33.33;;;21.25;;
46731;SDS011;32477;51.474;5.696;2023-05-07T05:41:11;32.08;;;20.05;;
46731;SDS011;32477;51.474;5.696;2023-05-07T05:43:37;27.38;;;19.42;;
46731;SDS011;32477;51.474;5.696;2023-05-07T05:46:03;26.63;;;19.38;;
46731;SDS011;32477;51.474;5.696;2023-05-07T05:48:33;25.17;;;17.40;;
46731;SDS011;32477;51.474;5.696;2023-05-07T05:50:58;28.40;;;18.90;;
46731;SDS011;32477;51.474;5.696;2023-05-07T05:53:24;27.42;;;18.17;;
46731;SDS011;32477;51.474;5.696;2023-05-07T05:55:50;28.02;;;18.65;;
46731;SDS011;32477;51.474;5.696;2023-05-07T05:58:16;27.10;;;16.58;;
46731;SDS011;32477;51.474;5.696;2023-05-07T06:00:42;25.88;;;17.95;;
46731;SDS011;32477;51.474;5.696;2023-05-07T06:03:07;24.17;;;16.70;;
46731;SDS011;32477;51.474;5.696;2023-05-07T06:05:33;23.70;;;16.30;;
46731;SDS011;32477;51.474;5.696;2023-05-07T06:07:59;24.00;;;16.25;;
46731;SDS011;32477;51.474;5.696;2023-05-07T06:10:24;27.40;;;16.83;;
46731;SDS011;32477;51.474;5.696;2023-05-07T06:12:52;27.00;;;17.77;;
46731;SDS011;32477;51.474;5.696;2023-05-07T06:15:17;26.85;;;16.63;;
46731;SDS011;32477;51.474;5.696;2023-05-07T06:17:43;25.45;;;16.98;;
46731;SDS011;32477;51.474;5.696;2023-05-07T06:20:08;21.05;;;15.18;;
46731;SDS011;32477;51.474;5.696;2023-05-07T06:22:34;24.70;;;15.30;;
46731;SDS011;32477;51.474;5.696;2023-05-07T06:25:00;23.10;;;15.45;;
46731;SDS011;32477;51.474;5.696;2023-05-07T06:27:26;27.50;;;15.23;;
46731;SDS011;32477;51.474;5.696;2023-05-07T06:29:53;20.70;;;14.30;;
46731;SDS011;32477;51.474;5.696;2023-05-07T06:32:18;18.80;;;14.98;;
46731;SDS011;32477;51.474;5.696;2023-05-07T06:34:44;21.10;;;14.05;;
46731;SDS011;32477;51.474;5.696;2023-05-07T06:37:09;16.35;;;12.77;;
46731;SDS011;32477;51.474;5.696;2023-05-07T06:39:35;17.42;;;13.48;;
46731;SDS011;32477;51.474;5.696;2023-05-07T06:42:01;16.92;;;12.90;;
46731;SDS011;32477;51.474;5.696;2023-05-07T06:44:27;21.30;;;13.43;;
46731;SDS011;32477;51.474;5.696;2023-05-07T06:46:53;18.88;;;13.18;;
46731;SDS011;32477;51.474;5.696;2023-05-07T06:49:18;22.48;;;13.40;;
46731;SDS011;32477;51.474;5.696;2023-05-07T06:51:44;18.77;;;12.80;;
46731;SDS011;32477;51.474;5.696;2023-05-07T06:54:10;17.67;;;13.57;;
46731;SDS011;32477;51.474;5.696;2023-05-07T06:56:35;21.30;;;12.98;;
46731;SDS011;32477;51.474;5.696;2023-05-07T06:59:01;20.88;;;13.90;;
46731;SDS011;32477;51.474;5.696;2023-05-07T07:01:28;22.75;;;12.73;;
46731;SDS011;32477;51.474;5.696;2023-05-07T07:03:54;17.90;;;12.45;;
46731;SDS011;32477;51.474;5.696;2023-05-07T07:06:20;18.92;;;13.45;;
46731;SDS011;32477;51.474;5.696;2023-05-07T07:08:46;17.63;;;12.57;;
46731;SDS011;32477;51.474;5.696;2023-05-07T07:11:11;17.70;;;13.20;;
46731;SDS011;32477;51.474;5.696;2023-05-07T07:13:37;16.63;;;12.88;;
46731;SDS011;32477;51.474;5.696;2023-05-07T07:16:03;20.42;;;12.70;;
46731;SDS011;32477;51.474;5.696;2023-05-07T07:18:28;17.10;;;12.43;;
46731;SDS011;32477;51.474;5.696;2023-05-07T07:20:54;17.67;;;12.27;;
46731;SDS011;32477;51.474;5.696;2023-05-07T07:23:20;21.02;;;12.13;;
46731;SDS011;32477;51.474;5.696;2023-05-07T07:25:45;15.55;;;10.98;;
46731;SDS011;32477;51.474;5.696;2023-05-07T07:28:11;15.80;;;11.25;;
46731;SDS011;32477;51.474;5.696;2023-05-07T07:30:37;13.93;;;11.52;;
46731;SDS011;32477;51.474;5.696;2023-05-07T07:33:03;16.35;;;11.40;;
46731;SDS011;32477;51.474;5.696;2023-05-07T07:35:30;18.60;;;11.45;;
46731;SDS011;32477;51.474;5.696;2023-05-07T07:37:58;16.77;;;12.00;;
46731;SDS011;32477;51.474;5.696;2023-05-07T07:40:24;16.63;;;10.93;;
46731;SDS011;32477;51.474;5.696;2023-05-07T07:42:50;18.50;;;12.13;;
46731;SDS011;32477;51.474;5.696;2023-05-07T07:45:16;17.13;;;10.52;;
46731;SDS011;32477;51.474;5.696;2023-05-07T07:47:42;14.85;;;11.13;;
46731;SDS011;32477;51.474;5.696;2023-05-07T07:50:08;14.52;;;10.68;;
46731;SDS011;32477;51.474;5.696;2023-05-07T07:52:34;12.60;;;10.30;;
46731;SDS011;32477;51.474;5.696;2023-05-07T07:55:00;15.13;;;10.45;;
46731;SDS011;32477;51.474;5.696;2023-05-07T07:57:26;16.15;;;11.77;;
46731;SDS011;32477;51.474;5.696;2023-05-07T07:59:51;17.15;;;11.68;;
46731;SDS011;32477;51.474;5.696;2023-05-07T08:02:17;15.73;;;11.55;;
46731;SDS011;32477;51.474;5.696;2023-05-07T08:04:43;19.90;;;11.35;;
46731;SDS011;32477;51.474;5.696;2023-05-07T08:07:12;15.85;;;12.52;;
46731;SDS011;32477;51.474;5.696;2023-05-07T08:09:38;16.15;;;11.50;;
46731;SDS011;32477;51.474;5.696;2023-05-07T08:12:05;15.15;;;11.30;;
46731;SDS011;32477;51.474;5.696;2023-05-07T08:14:31;14.55;;;10.63;;
46731;SDS011;32477;51.474;5.696;2023-05-07T08:16:57;15.40;;;11.30;;
46731;SDS011;32477;51.474;5.696;2023-05-07T08:19:23;15.02;;;11.43;;
46731;SDS011;32477;51.474;5.696;2023-05-07T08:21:49;16.50;;;11.60;;
46731;SDS011;32477;51.474;5.696;2023-05-07T08:24:15;19.20;;;10.95;;
46731;SDS011;32477;51.474;5.696;2023-05-07T08:26:42;12.82;;;11.32;;
46731;SDS011;32477;51.474;5.696;2023-05-07T08:29:08;13.75;;;11.95;;
46731;SDS011;32477;51.474;5.696;2023-05-07T08:31:34;15.80;;;11.18;;
46731;SDS011;32477;51.474;5.696;2023-05-07T08:33:59;16.58;;;12.82;;
46731;SDS011;32477;51.474;5.696;2023-05-07T08:36:25;18.85;;;11.80;;
46731;SDS011;32477;51.474;5.696;2023-05-07T08:38:51;17.15;;;12.50;;
46731;SDS011;32477;51.474;5.696;2023-05-07T08:41:17;18.42;;;12.75;;
46731;SDS011;32477;51.474;5.696;2023-05-07T08:43:46;15.57;;;12.18;;
46731;SDS011;32477;51.474;5.696;2023-05-07T08:46:15;18.02;;;12.50;;
46731;SDS011;32477;51.474;5.696;2023-05-07T08:48:43;18.40;;;11.77;;
46731;SDS011;32477;51.474;5.696;2023-05-07T08:51:12;15.57;;;11.27;;
46731;SDS011;32477;51.474;5.696;2023-05-07T08:53:38;18.52;;;12.73;;
46731;SDS011;32477;51.474;5.696;2023-05-07T08:56:06;13.40;;;10.73;;
46731;SDS011;32477;51.474;5.696;2023-05-07T08:58:36;15.75;;;10.77;;
46731;SDS011;32477;51.474;5.696;2023-05-07T09:01:14;14.70;;;11.80;;
46731;SDS011;32477;51.474;5.696;2023-05-07T09:03:44;14.85;;;12.15;;
46731;SDS011;32477;51.474;5.696;2023-05-07T09:06:10;15.55;;;11.35;;
46731;SDS011;32477;51.474;5.696;2023-05-07T09:08:36;14.70;;;10.68;;
46731;SDS011;32477;51.474;5.696;2023-05-07T09:11:02;18.30;;;10.02;;
46731;SDS011;32477;51.474;5.696;2023-05-07T09:13:28;18.10;;;10.15;;
46731;SDS011;32477;51.474;5.696;2023-05-07T09:15:54;13.60;;;9.82;;
46731;SDS011;32477;51.474;5.696;2023-05-07T09:18:20;14.02;;;10.40;;
46731;SDS011;32477;51.474;5.696;2023-05-07T09:20:46;13.38;;;10.68;;
46731;SDS011;32477;51.474;5.696;2023-05-07T09:23:12;13.80;;;10.95;;
46731;SDS011;32477;51.474;5.696;2023-05-07T09:25:38;13.48;;;10.75;;
46731;SDS011;32477;51.474;5.696;2023-05-07T09:28:04;15.93;;;11.25;;
46731;SDS011;32477;51.474;5.696;2023-05-07T09:30:35;15.57;;;12.07;;
46731;SDS011;32477;51.474;5.696;2023-05-07T09:33:01;16.00;;;13.13;;
46731;SDS011;32477;51.474;5.696;2023-05-07T09:35:29;19.80;;;13.80;;
46731;SDS011;32477;51.474;5.696;2023-05-07T09:37:55;19.25;;;13.55;;
46731;SDS011;32477;51.474;5.696;2023-05-07T09:42:49;15.27;;;11.57;;
46731;SDS011;32477;51.474;5.696;2023-05-07T09:45:36;17.45;;;11.88;;
46731;SDS011;32477;51.474;5.696;2023-05-07T09:48:01;14.80;;;10.98;;
46731;SDS011;32477;51.474;5.696;2023-05-07T09:50:36;14.55;;;10.88;;
46731;SDS011;32477;51.474;5.696;2023-05-07T09:53:13;16.48;;;11.30;;
46731;SDS011;32477;51.474;5.696;2023-05-07T09:55:41;15.38;;;10.82;;
46731;SDS011;32477;51.474;5.696;2023-05-07T09:58:07;13.85;;;10.68;;
46731;SDS011;32477;51.474;5.696;2023-05-07T10:00:34;19.90;;;11.13;;
46731;SDS011;32477;51.474;5.696;2023-05-07T10:03:01;17.52;;;11.27;;
46731;SDS011;32477;51.474;5.696;2023-05-07T10:05:28;17.17;;;10.95;;
46731;SDS011;32477;51.474;5.696;2023-05-07T10:07:54;16.98;;;9.95;;
46731;SDS011;32477;51.474;5.696;2023-05-07T10:10:21;16.83;;;9.85;;
46731;SDS011;32477;51.474;5.696;2023-05-07T10:12:48;14.13;;;9.90;;
46731;SDS011;32477;51.474;5.696;2023-05-07T10:15:15;13.02;;;10.68;;
46731;SDS011;32477;51.474;5.696;2023-05-07T10:17:42;16.55;;;10.90;;
46731;SDS011;32477;51.474;5.696;2023-05-07T10:20:08;12.35;;;9.25;;
46731;SDS011;32477;51.474;5.696;2023-05-07T10:22:38;10.40;;;7.90;;
46731;SDS011;32477;51.474;5.696;2023-05-07T10:25:14;15.52;;;9.02;;
46731;SDS011;32477;51.474;5.696;2023-05-07T10:27:43;13.30;;;8.05;;
46731;SDS011;32477;51.474;5.696;2023-05-07T10:30:17;10.05;;;7.65;;
46731;SDS011;32477;51.474;5.696;2023-05-07T10:32:59;11.88;;;9.15;;
46731;SDS011;32477;51.474;5.696;2023-05-07T10:35:36;13.05;;;7.93;;
46731;SDS011;32477;51.474;5.696;2023-05-07T10:38:05;8.85;;;5.95;;
46731;SDS011;32477;51.474;5.696;2023-05-07T10:40:32;12.48;;;6.72;;
46731;SDS011;32477;51.474;5.696;2023-05-07T10:43:01;12.77;;;6.32;;
46731;SDS011;32477;51.474;5.696;2023-05-07T10:45:31;13.30;;;7.57;;
46731;SDS011;32477;51.474;5.696;2023-05-07T10:48:13;11.75;;;7.93;;
46731;SDS011;32477;51.474;5.696;2023-05-07T10:50:42;10.07;;;6.47;;
46731;SDS011;32477;51.474;5.696;2023-05-07T10:55:47;10.40;;;5.82;;
46731;SDS011;32477;51.474;5.696;2023-05-07T11:00:46;10.65;;;6.70;;
46731;SDS011;32477;51.474;5.696;2023-05-07T11:03:13;8.27;;;5.90;;
46731;SDS011;32477;51.474;5.696;2023-05-07T11:05:40;10.20;;;6.75;;
46731;SDS011;32477;51.474;5.696;2023-05-07T11:08:07;15.43;;;7.05;;
46731;SDS011;32477;51.474;5.696;2023-05-07T11:13:19;9.60;;;5.95;;
46731;SDS011;32477;51.474;5.696;2023-05-07T11:16:19;7.20;;;5.28;;
46731;SDS011;32477;51.474;5.696;2023-05-07T11:18:50;11.85;;;6.22;;
46731;SDS011;32477;51.474;5.696;2023-05-07T11:24:02;12.82;;;7.18;;
46731;SDS011;32477;51.474;5.696;2023-05-07T11:26:30;11.57;;;6.28;;
46731;SDS011;32477;51.474;5.696;2023-05-07T11:29:10;9.60;;;6.75;;
46731;SDS011;32477;51.474;5.696;2023-05-07T11:31:43;11.27;;;6.93;;
46731;SDS011;32477;51.474;5.696;2023-05-07T11:34:12;12.02;;;6.82;;
46731;SDS011;32477;51.474;5.696;2023-05-07T11:36:41;9.35;;;6.60;;
46731;SDS011;32477;51.474;5.696;2023-05-07T11:41:54;10.25;;;5.75;;
46731;SDS011;32477;51.474;5.696;2023-05-07T11:44:20;9.55;;;5.45;;
46731;SDS011;32477;51.474;5.696;2023-05-07T11:46:46;9.13;;;5.18;;
46731;SDS011;32477;51.474;5.696;2023-05-07T11:49:11;11.75;;;5.65;;
46731;SDS011;32477;51.474;5.696;2023-05-07T11:51:37;12.85;;;5.43;;
46731;SDS011;32477;51.474;5.696;2023-05-07T11:54:04;8.57;;;4.90;;
46731;SDS011;32477;51.474;5.696;2023-05-07T11:56:34;8.32;;;5.53;;
46731;SDS011;32477;51.474;5.696;2023-05-07T11:59:00;9.88;;;4.97;;
46731;SDS011;32477;51.474;5.696;2023-05-07T12:01:26;6.45;;;4.53;;
46731;SDS011;32477;51.474;5.696;2023-05-07T12:03:51;6.57;;;3.75;;
46731;SDS011;32477;51.474;5.696;2023-05-07T12:06:17;7.80;;;4.72;;
46731;SDS011;32477;51.474;5.696;2023-05-07T12:08:44;12.85;;;4.57;;
46731;SDS011;32477;51.474;5.696;2023-05-07T12:11:29;10.68;;;4.95;;
46731;SDS011;32477;51.474;5.696;2023-05-07T12:13:54;8.48;;;4.60;;
46731;SDS011;32477;51.474;5.696;2023-05-07T12:16:20;14.27;;;5.85;;
46731;SDS011;32477;51.474;5.696;2023-05-07T12:18:47;8.45;;;5.50;;
46731;SDS011;32477;51.474;5.696;2023-05-07T12:21:13;9.63;;;6.18;;
46731;SDS011;32477;51.474;5.696;2023-05-07T12:23:39;9.10;;;5.22;;
46731;SDS011;32477;51.474;5.696;2023-05-07T12:26:05;10.18;;;4.50;;
46731;SDS011;32477;51.474;5.696;2023-05-07T12:28:31;10.00;;;4.60;;
46731;SDS011;32477;51.474;5.696;2023-05-07T12:31:02;8.75;;;4.50;;
46731;SDS011;32477;51.474;5.696;2023-05-07T12:33:27;8.02;;;5.15;;
46731;SDS011;32477;51.474;5.696;2023-05-07T12:35:54;8.60;;;4.85;;
46731;SDS011;32477;51.474;5.696;2023-05-07T12:38:21;6.70;;;5.30;;
46731;SDS011;32477;51.474;5.696;2023-05-07T12:40:52;12.20;;;4.45;;
46731;SDS011;32477;51.474;5.696;2023-05-07T12:43:19;8.93;;;4.85;;
46731;SDS011;32477;51.474;5.696;2023-05-07T12:45:47;11.13;;;5.30;;
46731;SDS011;32477;51.474;5.696;2023-05-07T12:48:14;9.07;;;4.88;;
46731;SDS011;32477;51.474;5.696;2023-05-07T12:50:40;11.50;;;5.20;;
46731;SDS011;32477;51.474;5.696;2023-05-07T12:53:06;12.13;;;5.75;;
46731;SDS011;32477;51.474;5.696;2023-05-07T12:55:56;11.02;;;5.30;;
46731;SDS011;32477;51.474;5.696;2023-05-07T12:58:24;7.65;;;5.10;;
46731;SDS011;32477;51.474;5.696;2023-05-07T13:00:54;7.68;;;4.47;;
46731;SDS011;32477;51.474;5.696;2023-05-07T13:03:47;6.95;;;4.40;;
46731;SDS011;32477;51.474;5.696;2023-05-07T13:06:12;5.53;;;2.95;;
46731;SDS011;32477;51.474;5.696;2023-05-07T13:08:39;7.40;;;2.35;;
46731;SDS011;32477;51.474;5.696;2023-05-07T13:11:08;14.65;;;2.70;;
46731;SDS011;32477;51.474;5.696;2023-05-07T13:13:35;5.40;;;2.50;;
46731;SDS011;32477;51.474;5.696;2023-05-07T13:16:04;6.57;;;2.83;;
46731;SDS011;32477;51.474;5.696;2023-05-07T13:18:30;4.32;;;3.03;;
46731;SDS011;32477;51.474;5.696;2023-05-07T13:20:57;7.07;;;2.78;;
46731;SDS011;32477;51.474;5.696;2023-05-07T13:23:23;5.03;;;3.00;;
46731;SDS011;32477;51.474;5.696;2023-05-07T13:25:49;8.98;;;3.33;;
46731;SDS011;32477;51.474;5.696;2023-05-07T13:28:17;5.03;;;2.75;;
46731;SDS011;32477;51.474;5.696;2023-05-07T13:30:44;8.07;;;3.60;;
46731;SDS011;32477;51.474;5.696;2023-05-07T13:33:09;9.82;;;3.53;;
46731;SDS011;32477;51.474;5.696;2023-05-07T13:35:35;9.07;;;3.20;;
46731;SDS011;32477;51.474;5.696;2023-05-07T13:38:01;8.57;;;3.65;;
46731;SDS011;32477;51.474;5.696;2023-05-07T13:40:26;7.80;;;4.10;;
46731;SDS011;32477;51.474;5.696;2023-05-07T13:42:52;15.27;;;4.47;;
46731;SDS011;32477;51.474;5.696;2023-05-07T13:45:18;14.95;;;5.15;;
46731;SDS011;32477;51.474;5.696;2023-05-07T13:47:45;8.60;;;4.03;;
46731;SDS011;32477;51.474;5.696;2023-05-07T13:50:12;13.73;;;5.03;;
46731;SDS011;32477;51.474;5.696;2023-05-07T13:52:41;9.40;;;4.85;;
46731;SDS011;32477;51.474;5.696;2023-05-07T13:55:08;12.60;;;5.85;;
46731;SDS011;32477;51.474;5.696;2023-05-07T13:57:36;15.93;;;5.88;;
46731;SDS011;32477;51.474;5.696;2023-05-07T14:00:03;9.48;;;5.40;;
46731;SDS011;32477;51.474;5.696;2023-05-07T14:02:30;18.02;;;5.35;;
46731;SDS011;32477;51.474;5.696;2023-05-07T14:04:56;11.73;;;5.60;;
46731;SDS011;32477;51.474;5.696;2023-05-07T14:07:21;10.50;;;5.70;;
46731;SDS011;32477;51.474;5.696;2023-05-07T14:09:47;12.13;;;6.63;;
46731;SDS011;32477;51.474;5.696;2023-05-07T14:12:13;34.55;;;19.40;;
46731;SDS011;32477;51.474;5.696;2023-05-07T14:14:38;15.05;;;7.63;;
46731;SDS011;32477;51.474;5.696;2023-05-07T14:17:04;12.77;;;7.32;;
46731;SDS011;32477;51.474;5.696;2023-05-07T14:19:29;13.45;;;6.90;;
46731;SDS011;32477;51.474;5.696;2023-05-07T14:21:55;13.77;;;7.63;;
46731;SDS011;32477;51.474;5.696;2023-05-07T14:24:21;12.77;;;8.13;;
46731;SDS011;32477;51.474;5.696;2023-05-07T14:26:46;16.85;;;7.40;;
46731;SDS011;32477;51.474;5.696;2023-05-07T14:29:12;12.45;;;6.53;;
46731;SDS011;32477;51.474;5.696;2023-05-07T14:31:38;9.82;;;6.13;;
46731;SDS011;32477;51.474;5.696;2023-05-07T14:34:03;12.23;;;6.13;;
46731;SDS011;32477;51.474;5.696;2023-05-07T14:36:29;17.35;;;7.10;;
46731;SDS011;32477;51.474;5.696;2023-05-07T14:38:56;18.60;;;7.55;;
46731;SDS011;32477;51.474;5.696;2023-05-07T14:41:24;12.15;;;7.15;;
46731;SDS011;32477;51.474;5.696;2023-05-07T14:43:50;11.48;;;7.15;;